sensor_id;sensor_type;location;lat;lon;timestamp;P1;durP1;ratioP1;P2;durP2;ratioP2
75316;SDS011;63913;51.492;10.368;2023-11-18T00:00:42;8.60;;;3.58;;
75316;SDS011;63913;51.492;10.368;2023-11-18T00:03:08;7.93;;;3.80;;
75316;SDS011;63913;51.492;10.368;2023-11-18T00:05:33;8.95;;;3.08;;
75316;SDS011;63913;51.492;10.368;2023-11-18T00:07:58;6.90;;;2.88;;
75316;SDS011;63913;51.492;10.368;2023-11-18T00:10:24;5.72;;;2.83;;
75316;SDS011;63913;51.492;10.368;2023-11-18T00:12:49;8.43;;;2.72;;
75316;SDS011;63913;51.492;10.368;2023-11-18T00:15:16;6.53;;;2.55;;
75316;SDS011;63913;51.492;10.368;2023-11-18T00:17:42;6.00;;;2.75;;
75316;SDS011;63913;51.492;10.368;2023-11-18T00:20:08;5.53;;;2.63;;
75316;SDS011;63913;51.492;10.368;2023-11-18T00:22:35;7.00;;;2.90;;
75316;SDS011;63913;51.492;10.368;2023-11-18T00:25:01;5.30;;;2.47;;
75316;SDS011;63913;51.492;10.368;2023-11-18T00:27:30;6.30;;;2.72;;
75316;SDS011;63913;51.492;10.368;2023-11-18T00:29:56;7.15;;;2.92;;
75316;SDS011;63913;51.492;10.368;2023-11-18T00:32:21;9.43;;;3.10;;
75316;SDS011;63913;51.492;10.368;2023-11-18T00:34:47;5.45;;;2.45;;
75316;SDS011;63913;51.492;10.368;2023-11-18T00:37:13;8.23;;;2.60;;
75316;SDS011;63913;51.492;10.368;2023-11-18T00:39:38;6.68;;;2.80;;
75316;SDS011;63913;51.492;10.368;2023-11-18T00:42:03;9.33;;;2.80;;
75316;SDS011;63913;51.492;10.368;2023-11-18T00:44:29;6.22;;;2.90;;
75316;SDS011;63913;51.492;10.368;2023-11-18T00:46:54;5.47;;;2.90;;
75316;SDS011;63913;51.492;10.368;2023-11-18T00:49:21;14.48;;;3.47;;
75316;SDS011;63913;51.492;10.368;2023-11-18T00:51:46;4.35;;;2.67;;
75316;SDS011;63913;51.492;10.368;2023-11-18T00:54:12;6.80;;;3.45;;
75316;SDS011;63913;51.492;10.368;2023-11-18T00:56:37;6.88;;;3.05;;
75316;SDS011;63913;51.492;10.368;2023-11-18T00:59:03;8.02;;;3.67;;
75316;SDS011;63913;51.492;10.368;2023-11-18T01:01:28;10.27;;;3.58;;
75316;SDS011;63913;51.492;10.368;2023-11-18T01:03:54;9.82;;;3.53;;
75316;SDS011;63913;51.492;10.368;2023-11-18T01:06:24;12.30;;;3.83;;
75316;SDS011;63913;51.492;10.368;2023-11-18T01:08:51;8.40;;;3.60;;
75316;SDS011;63913;51.492;10.368;2023-11-18T01:11:17;8.30;;;3.40;;
75316;SDS011;63913;51.492;10.368;2023-11-18T01:13:50;12.60;;;4.57;;
75316;SDS011;63913;51.492;10.368;2023-11-18T01:16:16;11.23;;;4.47;;
75316;SDS011;63913;51.492;10.368;2023-11-18T01:18:42;8.77;;;4.03;;
75316;SDS011;63913;51.492;10.368;2023-11-18T01:21:08;10.43;;;4.30;;
75316;SDS011;63913;51.492;10.368;2023-11-18T01:23:34;11.23;;;4.43;;
75316;SDS011;63913;51.492;10.368;2023-11-18T01:26:01;13.02;;;4.38;;
75316;SDS011;63913;51.492;10.368;2023-11-18T01:28:30;13.57;;;4.35;;
75316;SDS011;63913;51.492;10.368;2023-11-18T01:31:05;12.20;;;4.00;;
75316;SDS011;63913;51.492;10.368;2023-11-18T01:33:35;10.00;;;4.38;;
75316;SDS011;63913;51.492;10.368;2023-11-18T01:36:03;12.05;;;4.70;;
75316;SDS011;63913;51.492;10.368;2023-11-18T01:38:33;10.27;;;4.82;;
75316;SDS011;63913;51.492;10.368;2023-11-18T01:40:59;8.13;;;4.55;;
75316;SDS011;63913;51.492;10.368;2023-11-18T01:43:26;8.98;;;4.43;;
75316;SDS011;63913;51.492;10.368;2023-11-18T01:45:51;8.13;;;4.20;;
75316;SDS011;63913;51.492;10.368;2023-11-18T01:48:18;12.90;;;4.68;;
75316;SDS011;63913;51.492;10.368;2023-11-18T01:50:44;11.85;;;4.60;;
75316;SDS011;63913;51.492;10.368;2023-11-18T01:53:12;10.75;;;4.68;;
75316;SDS011;63913;51.492;10.368;2023-11-18T01:55:39;10.73;;;4.40;;
75316;SDS011;63913;51.492;10.368;2023-11-18T01:58:05;11.13;;;4.82;;
75316;SDS011;63913;51.492;10.368;2023-11-18T02:00:36;10.60;;;4.47;;
75316;SDS011;63913;51.492;10.368;2023-11-18T02:03:04;9.50;;;4.25;;
75316;SDS011;63913;51.492;10.368;2023-11-18T02:05:31;10.68;;;4.90;;
75316;SDS011;63913;51.492;10.368;2023-11-18T02:08:03;11.32;;;4.60;;
75316;SDS011;63913;51.492;10.368;2023-11-18T02:10:36;13.75;;;4.63;;
75316;SDS011;63913;51.492;10.368;2023-11-18T02:13:13;12.10;;;5.47;;
75316;SDS011;63913;51.492;10.368;2023-11-18T02:15:53;9.80;;;4.30;;
75316;SDS011;63913;51.492;10.368;2023-11-18T02:18:23;12.55;;;4.68;;
75316;SDS011;63913;51.492;10.368;2023-11-18T02:20:50;19.15;;;5.03;;
75316;SDS011;63913;51.492;10.368;2023-11-18T02:23:17;11.82;;;5.22;;
75316;SDS011;63913;51.492;10.368;2023-11-18T02:25:45;14.75;;;5.78;;
75316;SDS011;63913;51.492;10.368;2023-11-18T02:28:11;12.43;;;5.55;;
75316;SDS011;63913;51.492;10.368;2023-11-18T02:30:37;18.42;;;5.43;;
75316;SDS011;63913;51.492;10.368;2023-11-18T02:33:20;16.33;;;6.70;;
75316;SDS011;63913;51.492;10.368;2023-11-18T02:35:54;17.80;;;5.75;;
75316;SDS011;63913;51.492;10.368;2023-11-18T02:38:31;20.42;;;6.80;;
75316;SDS011;63913;51.492;10.368;2023-11-18T02:41:06;18.55;;;6.22;;
75316;SDS011;63913;51.492;10.368;2023-11-18T02:43:36;17.05;;;6.75;;
75316;SDS011;63913;51.492;10.368;2023-11-18T02:46:05;18.23;;;7.00;;
75316;SDS011;63913;51.492;10.368;2023-11-18T02:48:32;24.23;;;6.97;;
75316;SDS011;63913;51.492;10.368;2023-11-18T02:50:58;21.08;;;6.72;;
75316;SDS011;63913;51.492;10.368;2023-11-18T02:53:24;19.73;;;7.00;;
75316;SDS011;63913;51.492;10.368;2023-11-18T02:55:50;18.92;;;6.30;;
75316;SDS011;63913;51.492;10.368;2023-11-18T02:58:17;16.98;;;6.65;;
75316;SDS011;63913;51.492;10.368;2023-11-18T03:00:43;22.63;;;7.60;;
75316;SDS011;63913;51.492;10.368;2023-11-18T03:03:10;20.25;;;7.50;;
75316;SDS011;63913;51.492;10.368;2023-11-18T03:05:36;23.25;;;7.57;;
75316;SDS011;63913;51.492;10.368;2023-11-18T03:08:02;23.67;;;8.68;;
75316;SDS011;63913;51.492;10.368;2023-11-18T03:10:31;18.65;;;7.25;;
75316;SDS011;63913;51.492;10.368;2023-11-18T03:13:00;21.55;;;7.60;;
75316;SDS011;63913;51.492;10.368;2023-11-18T03:15:26;23.80;;;8.20;;
75316;SDS011;63913;51.492;10.368;2023-11-18T03:17:52;24.98;;;9.02;;
75316;SDS011;63913;51.492;10.368;2023-11-18T03:20:19;19.90;;;6.90;;
75316;SDS011;63913;51.492;10.368;2023-11-18T03:22:48;23.58;;;8.13;;
75316;SDS011;63913;51.492;10.368;2023-11-18T03:25:15;27.92;;;7.63;;
75316;SDS011;63913;51.492;10.368;2023-11-18T03:27:41;25.45;;;8.32;;
75316;SDS011;63913;51.492;10.368;2023-11-18T03:30:07;22.45;;;8.75;;
75316;SDS011;63913;51.492;10.368;2023-11-18T03:32:36;22.83;;;7.85;;
75316;SDS011;63913;51.492;10.368;2023-11-18T03:35:06;30.60;;;8.85;;
75316;SDS011;63913;51.492;10.368;2023-11-18T03:37:33;19.20;;;7.75;;
75316;SDS011;63913;51.492;10.368;2023-11-18T03:40:09;21.88;;;8.00;;
75316;SDS011;63913;51.492;10.368;2023-11-18T03:42:36;22.10;;;7.35;;
75316;SDS011;63913;51.492;10.368;2023-11-18T03:45:02;21.17;;;7.88;;
75316;SDS011;63913;51.492;10.368;2023-11-18T03:47:28;24.35;;;8.02;;
75316;SDS011;63913;51.492;10.368;2023-11-18T03:49:55;22.10;;;7.45;;
75316;SDS011;63913;51.492;10.368;2023-11-18T03:52:21;22.83;;;7.95;;
75316;SDS011;63913;51.492;10.368;2023-11-18T03:54:46;23.45;;;7.75;;
75316;SDS011;63913;51.492;10.368;2023-11-18T03:57:12;26.75;;;8.00;;
75316;SDS011;63913;51.492;10.368;2023-11-18T03:59:40;24.42;;;8.73;;
75316;SDS011;63913;51.492;10.368;2023-11-18T04:02:06;20.42;;;7.78;;
75316;SDS011;63913;51.492;10.368;2023-11-18T04:04:32;26.77;;;7.28;;
75316;SDS011;63913;51.492;10.368;2023-11-18T04:06:58;20.58;;;6.75;;
75316;SDS011;63913;51.492;10.368;2023-11-18T04:09:26;19.40;;;7.72;;
75316;SDS011;63913;51.492;10.368;2023-11-18T04:11:51;17.75;;;6.88;;
75316;SDS011;63913;51.492;10.368;2023-11-18T04:14:17;20.58;;;7.50;;
75316;SDS011;63913;51.492;10.368;2023-11-18T04:16:44;23.23;;;7.57;;
75316;SDS011;63913;51.492;10.368;2023-11-18T04:19:10;18.23;;;6.95;;
75316;SDS011;63913;51.492;10.368;2023-11-18T04:21:36;20.65;;;6.80;;
75316;SDS011;63913;51.492;10.368;2023-11-18T04:24:01;21.30;;;7.32;;
75316;SDS011;63913;51.492;10.368;2023-11-18T04:26:27;22.35;;;8.13;;
75316;SDS011;63913;51.492;10.368;2023-11-18T04:28:52;22.05;;;7.97;;
75316;SDS011;63913;51.492;10.368;2023-11-18T04:31:18;22.75;;;7.70;;
75316;SDS011;63913;51.492;10.368;2023-11-18T04:33:43;19.35;;;6.95;;
75316;SDS011;63913;51.492;10.368;2023-11-18T04:36:09;21.45;;;6.55;;
75316;SDS011;63913;51.492;10.368;2023-11-18T04:38:35;17.67;;;6.57;;
75316;SDS011;63913;51.492;10.368;2023-11-18T04:41:01;23.17;;;6.90;;
75316;SDS011;63913;51.492;10.368;2023-11-18T04:43:29;20.75;;;6.50;;
75316;SDS011;63913;51.492;10.368;2023-11-18T04:45:55;23.83;;;7.32;;
75316;SDS011;63913;51.492;10.368;2023-11-18T04:48:21;26.50;;;7.50;;
75316;SDS011;63913;51.492;10.368;2023-11-18T04:50:46;23.20;;;7.50;;
75316;SDS011;63913;51.492;10.368;2023-11-18T04:53:12;21.63;;;6.95;;
75316;SDS011;63913;51.492;10.368;2023-11-18T04:55:37;23.92;;;7.78;;
75316;SDS011;63913;51.492;10.368;2023-11-18T04:58:03;18.42;;;7.15;;
75316;SDS011;63913;51.492;10.368;2023-11-18T05:00:33;19.10;;;6.95;;
75316;SDS011;63913;51.492;10.368;2023-11-18T05:02:59;22.17;;;6.60;;
75316;SDS011;63913;51.492;10.368;2023-11-18T05:05:24;17.40;;;6.70;;
75316;SDS011;63913;51.492;10.368;2023-11-18T05:07:49;18.92;;;6.28;;
75316;SDS011;63913;51.492;10.368;2023-11-18T05:10:15;19.13;;;6.97;;
75316;SDS011;63913;51.492;10.368;2023-11-18T05:12:40;20.38;;;6.75;;
75316;SDS011;63913;51.492;10.368;2023-11-18T05:15:08;18.30;;;6.25;;
75316;SDS011;63913;51.492;10.368;2023-11-18T05:17:35;17.08;;;6.30;;
75316;SDS011;63913;51.492;10.368;2023-11-18T05:20:03;17.10;;;6.18;;
75316;SDS011;63913;51.492;10.368;2023-11-18T05:22:30;17.98;;;5.97;;
75316;SDS011;63913;51.492;10.368;2023-11-18T05:24:56;19.45;;;6.57;;
75316;SDS011;63913;51.492;10.368;2023-11-18T05:27:22;19.88;;;5.88;;
75316;SDS011;63913;51.492;10.368;2023-11-18T05:29:48;13.57;;;5.10;;
75316;SDS011;63913;51.492;10.368;2023-11-18T05:34:45;13.07;;;4.93;;
75316;SDS011;63913;51.492;10.368;2023-11-18T05:37:11;17.08;;;5.18;;
75316;SDS011;63913;51.492;10.368;2023-11-18T05:39:37;12.88;;;4.38;;
75316;SDS011;63913;51.492;10.368;2023-11-18T05:42:08;13.98;;;5.13;;
75316;SDS011;63913;51.492;10.368;2023-11-18T05:44:36;12.73;;;4.63;;
75316;SDS011;63913;51.492;10.368;2023-11-18T05:47:03;13.75;;;5.13;;
75316;SDS011;63913;51.492;10.368;2023-11-18T05:49:28;17.70;;;5.70;;
75316;SDS011;63913;51.492;10.368;2023-11-18T05:51:54;11.57;;;4.80;;
75316;SDS011;63913;51.492;10.368;2023-11-18T05:54:19;14.30;;;5.03;;
75316;SDS011;63913;51.492;10.368;2023-11-18T05:56:45;15.13;;;4.43;;
75316;SDS011;63913;51.492;10.368;2023-11-18T05:59:10;14.80;;;5.25;;
75316;SDS011;63913;51.492;10.368;2023-11-18T06:01:36;11.65;;;4.88;;
75316;SDS011;63913;51.492;10.368;2023-11-18T06:04:02;11.60;;;3.97;;
75316;SDS011;63913;51.492;10.368;2023-11-18T06:06:28;9.93;;;3.97;;
75316;SDS011;63913;51.492;10.368;2023-11-18T06:08:54;12.48;;;4.32;;
75316;SDS011;63913;51.492;10.368;2023-11-18T06:11:19;12.02;;;4.65;;
75316;SDS011;63913;51.492;10.368;2023-11-18T06:13:48;13.80;;;5.18;;
75316;SDS011;63913;51.492;10.368;2023-11-18T06:16:19;11.00;;;4.20;;
75316;SDS011;63913;51.492;10.368;2023-11-18T06:18:58;12.88;;;4.38;;
75316;SDS011;63913;51.492;10.368;2023-11-18T06:21:25;10.73;;;4.60;;
75316;SDS011;63913;51.492;10.368;2023-11-18T06:23:56;10.95;;;4.35;;
75316;SDS011;63913;51.492;10.368;2023-11-18T06:26:23;11.55;;;4.53;;
75316;SDS011;63913;51.492;10.368;2023-11-18T06:28:52;10.55;;;3.83;;
75316;SDS011;63913;51.492;10.368;2023-11-18T06:31:18;10.85;;;4.10;;
75316;SDS011;63913;51.492;10.368;2023-11-18T06:33:45;7.80;;;3.28;;
75316;SDS011;63913;51.492;10.368;2023-11-18T06:38:50;11.02;;;3.63;;
75316;SDS011;63913;51.492;10.368;2023-11-18T06:41:17;8.13;;;3.30;;
75316;SDS011;63913;51.492;10.368;2023-11-18T06:43:48;8.27;;;3.15;;
75316;SDS011;63913;51.492;10.368;2023-11-18T06:46:19;9.68;;;3.35;;
75316;SDS011;63913;51.492;10.368;2023-11-18T06:48:54;8.75;;;3.22;;
75316;SDS011;63913;51.492;10.368;2023-11-18T06:51:20;9.30;;;3.35;;
75316;SDS011;63913;51.492;10.368;2023-11-18T06:53:49;9.45;;;3.42;;
75316;SDS011;63913;51.492;10.368;2023-11-18T06:56:21;5.80;;;2.90;;
75316;SDS011;63913;51.492;10.368;2023-11-18T06:58:47;10.25;;;3.75;;
75316;SDS011;63913;51.492;10.368;2023-11-18T07:01:13;7.38;;;2.80;;
75316;SDS011;63913;51.492;10.368;2023-11-18T07:03:40;9.13;;;3.20;;
75316;SDS011;63913;51.492;10.368;2023-11-18T07:06:09;8.70;;;2.72;;
75316;SDS011;63913;51.492;10.368;2023-11-18T07:08:38;7.80;;;2.70;;
75316;SDS011;63913;51.492;10.368;2023-11-18T07:11:04;8.60;;;3.20;;
75316;SDS011;63913;51.492;10.368;2023-11-18T07:13:31;5.93;;;2.70;;
75316;SDS011;63913;51.492;10.368;2023-11-18T07:16:01;5.35;;;2.70;;
75316;SDS011;63913;51.492;10.368;2023-11-18T07:18:28;4.60;;;2.10;;
75316;SDS011;63913;51.492;10.368;2023-11-18T07:20:58;5.75;;;2.45;;
75316;SDS011;63913;51.492;10.368;2023-11-18T07:23:24;4.03;;;2.22;;
75316;SDS011;63913;51.492;10.368;2023-11-18T07:25:49;4.18;;;2.05;;
75316;SDS011;63913;51.492;10.368;2023-11-18T07:28:15;4.32;;;2.22;;
75316;SDS011;63913;51.492;10.368;2023-11-18T07:30:43;3.83;;;2.00;;
75316;SDS011;63913;51.492;10.368;2023-11-18T07:33:18;4.40;;;1.98;;
75316;SDS011;63913;51.492;10.368;2023-11-18T07:35:47;3.40;;;1.92;;
75316;SDS011;63913;51.492;10.368;2023-11-18T07:38:14;4.43;;;2.20;;
75316;SDS011;63913;51.492;10.368;2023-11-18T07:40:40;5.07;;;2.17;;
75316;SDS011;63913;51.492;10.368;2023-11-18T07:43:14;21.42;;;8.95;;
75316;SDS011;63913;51.492;10.368;2023-11-18T07:45:40;18.23;;;7.40;;
75316;SDS011;63913;51.492;10.368;2023-11-18T07:48:10;19.20;;;8.13;;
75316;SDS011;63913;51.492;10.368;2023-11-18T07:50:42;23.02;;;9.95;;
75316;SDS011;63913;51.492;10.368;2023-11-18T07:53:12;19.23;;;7.97;;
75316;SDS011;63913;51.492;10.368;2023-11-18T07:55:38;10.70;;;4.95;;
75316;SDS011;63913;51.492;10.368;2023-11-18T07:58:08;14.63;;;6.85;;
75316;SDS011;63913;51.492;10.368;2023-11-18T08:03:07;13.05;;;6.10;;
75316;SDS011;63913;51.492;10.368;2023-11-18T08:05:37;6.95;;;3.97;;
75316;SDS011;63913;51.492;10.368;2023-11-18T08:08:05;8.70;;;4.15;;
75316;SDS011;63913;51.492;10.368;2023-11-18T08:10:34;9.20;;;4.10;;
75316;SDS011;63913;51.492;10.368;2023-11-18T08:13:03;6.20;;;3.67;;
75316;SDS011;63913;51.492;10.368;2023-11-18T08:15:29;6.78;;;3.30;;
75316;SDS011;63913;51.492;10.368;2023-11-18T08:17:56;8.10;;;3.15;;
75316;SDS011;63913;51.492;10.368;2023-11-18T08:20:21;5.50;;;3.03;;
75316;SDS011;63913;51.492;10.368;2023-11-18T08:22:50;6.03;;;3.00;;
75316;SDS011;63913;51.492;10.368;2023-11-18T08:25:15;13.70;;;6.38;;
75316;SDS011;63913;51.492;10.368;2023-11-18T08:27:42;15.10;;;6.97;;
75316;SDS011;63913;51.492;10.368;2023-11-18T08:30:11;11.85;;;6.30;;
75316;SDS011;63913;51.492;10.368;2023-11-18T08:32:41;11.55;;;5.15;;
75316;SDS011;63913;51.492;10.368;2023-11-18T08:35:13;9.75;;;4.85;;
75316;SDS011;63913;51.492;10.368;2023-11-18T08:37:40;10.88;;;4.53;;
75316;SDS011;63913;51.492;10.368;2023-11-18T08:40:07;7.03;;;3.78;;
75316;SDS011;63913;51.492;10.368;2023-11-18T08:42:46;9.18;;;3.85;;
75316;SDS011;63913;51.492;10.368;2023-11-18T08:45:20;7.65;;;3.60;;
75316;SDS011;63913;51.492;10.368;2023-11-18T08:47:47;5.93;;;2.85;;
75316;SDS011;63913;51.492;10.368;2023-11-18T08:50:17;7.18;;;3.10;;
75316;SDS011;63913;51.492;10.368;2023-11-18T08:52:45;5.70;;;2.65;;
75316;SDS011;63913;51.492;10.368;2023-11-18T08:55:14;6.22;;;2.50;;
75316;SDS011;63913;51.492;10.368;2023-11-18T08:57:49;6.20;;;2.33;;
75316;SDS011;63913;51.492;10.368;2023-11-18T09:00:24;5.22;;;2.63;;
75316;SDS011;63913;51.492;10.368;2023-11-18T09:03:09;9.00;;;2.65;;
75316;SDS011;63913;51.492;10.368;2023-11-18T09:05:35;4.63;;;2.15;;
75316;SDS011;63913;51.492;10.368;2023-11-18T09:08:03;11.18;;;2.25;;
75316;SDS011;63913;51.492;10.368;2023-11-18T09:10:31;6.10;;;2.25;;
75316;SDS011;63913;51.492;10.368;2023-11-18T09:12:57;4.80;;;1.98;;
75316;SDS011;63913;51.492;10.368;2023-11-18T09:15:23;5.93;;;1.92;;
75316;SDS011;63913;51.492;10.368;2023-11-18T09:17:48;6.35;;;2.08;;
75316;SDS011;63913;51.492;10.368;2023-11-18T09:20:15;4.10;;;1.63;;
75316;SDS011;63913;51.492;10.368;2023-11-18T09:22:50;3.55;;;1.80;;
75316;SDS011;63913;51.492;10.368;2023-11-18T09:25:23;6.40;;;1.92;;
75316;SDS011;63913;51.492;10.368;2023-11-18T09:27:48;2.97;;;1.60;;
75316;SDS011;63913;51.492;10.368;2023-11-18T09:30:14;2.60;;;1.45;;
75316;SDS011;63913;51.492;10.368;2023-11-18T09:32:40;3.28;;;1.48;;
75316;SDS011;63913;51.492;10.368;2023-11-18T09:35:07;3.15;;;1.77;;
75316;SDS011;63913;51.492;10.368;2023-11-18T09:37:38;3.75;;;1.73;;
75316;SDS011;63913;51.492;10.368;2023-11-18T09:40:08;2.92;;;1.58;;
75316;SDS011;63913;51.492;10.368;2023-11-18T09:42:38;4.80;;;1.90;;
75316;SDS011;63913;51.492;10.368;2023-11-18T09:45:04;4.63;;;1.75;;
75316;SDS011;63913;51.492;10.368;2023-11-18T09:47:34;2.70;;;1.58;;
75316;SDS011;63913;51.492;10.368;2023-11-18T09:50:06;3.72;;;1.60;;
75316;SDS011;63913;51.492;10.368;2023-11-18T09:52:37;2.85;;;1.50;;
75316;SDS011;63913;51.492;10.368;2023-11-18T09:55:09;3.63;;;1.77;;
75316;SDS011;63913;51.492;10.368;2023-11-18T09:58:03;3.20;;;1.67;;
75316;SDS011;63913;51.492;10.368;2023-11-18T10:00:31;2.85;;;1.90;;
75316;SDS011;63913;51.492;10.368;2023-11-18T10:02:58;3.75;;;1.90;;
75316;SDS011;63913;51.492;10.368;2023-11-18T10:05:26;4.18;;;2.15;;
75316;SDS011;63913;51.492;10.368;2023-11-18T10:07:53;3.63;;;1.55;;
75316;SDS011;63913;51.492;10.368;2023-11-18T10:10:19;3.53;;;1.70;;
75316;SDS011;63913;51.492;10.368;2023-11-18T10:12:46;6.75;;;2.45;;
75316;SDS011;63913;51.492;10.368;2023-11-18T10:15:17;3.25;;;1.50;;
75316;SDS011;63913;51.492;10.368;2023-11-18T10:17:45;4.53;;;1.63;;
75316;SDS011;63913;51.492;10.368;2023-11-18T10:20:48;5.68;;;1.92;;
75316;SDS011;63913;51.492;10.368;2023-11-18T10:23:17;2.33;;;1.77;;
75316;SDS011;63913;51.492;10.368;2023-11-18T10:25:51;4.13;;;1.80;;
75316;SDS011;63913;51.492;10.368;2023-11-18T10:28:27;4.18;;;2.13;;
75316;SDS011;63913;51.492;10.368;2023-11-18T10:30:58;4.57;;;2.13;;
75316;SDS011;63913;51.492;10.368;2023-11-18T10:33:26;6.43;;;2.90;;
75316;SDS011;63913;51.492;10.368;2023-11-18T10:35:56;4.57;;;2.50;;
75316;SDS011;63913;51.492;10.368;2023-11-18T10:38:23;5.45;;;2.42;;
75316;SDS011;63913;51.492;10.368;2023-11-18T10:40:58;5.47;;;2.45;;
75316;SDS011;63913;51.492;10.368;2023-11-18T10:43:26;5.10;;;2.33;;
75316;SDS011;63913;51.492;10.368;2023-11-18T10:46:04;11.55;;;3.97;;
75316;SDS011;63913;51.492;10.368;2023-11-18T10:48:45;5.15;;;2.88;;
75316;SDS011;63913;51.492;10.368;2023-11-18T10:51:18;8.93;;;3.60;;
75316;SDS011;63913;51.492;10.368;2023-11-18T10:53:47;5.40;;;2.63;;
75316;SDS011;63913;51.492;10.368;2023-11-18T10:56:28;8.13;;;2.75;;
75316;SDS011;63913;51.492;10.368;2023-11-18T10:58:57;5.63;;;2.85;;
75316;SDS011;63913;51.492;10.368;2023-11-18T11:01:27;5.80;;;2.78;;
75316;SDS011;63913;51.492;10.368;2023-11-18T11:03:59;6.05;;;2.83;;
75316;SDS011;63913;51.492;10.368;2023-11-18T11:06:29;4.40;;;2.78;;
75316;SDS011;63913;51.492;10.368;2023-11-18T11:08:56;4.38;;;2.95;;
75316;SDS011;63913;51.492;10.368;2023-11-18T11:11:28;7.88;;;2.95;;
75316;SDS011;63913;51.492;10.368;2023-11-18T11:14:04;10.77;;;3.22;;
75316;SDS011;63913;51.492;10.368;2023-11-18T11:16:41;59.67;;;22.98;;
75316;SDS011;63913;51.492;10.368;2023-11-18T11:19:09;8.70;;;3.47;;
75316;SDS011;63913;51.492;10.368;2023-11-18T11:21:52;5.10;;;2.83;;
75316;SDS011;63913;51.492;10.368;2023-11-18T11:24:40;5.53;;;3.10;;
75316;SDS011;63913;51.492;10.368;2023-11-18T11:27:23;5.22;;;3.20;;
75316;SDS011;63913;51.492;10.368;2023-11-18T11:30:08;6.28;;;2.80;;
75316;SDS011;63913;51.492;10.368;2023-11-18T11:32:52;6.35;;;3.15;;
75316;SDS011;63913;51.492;10.368;2023-11-18T11:35:46;4.70;;;2.92;;
75316;SDS011;63913;51.492;10.368;2023-11-18T11:38:22;6.28;;;2.65;;
75316;SDS011;63913;51.492;10.368;2023-11-18T11:40:49;4.93;;;2.95;;
75316;SDS011;63913;51.492;10.368;2023-11-18T11:43:18;4.65;;;2.90;;
75316;SDS011;63913;51.492;10.368;2023-11-18T11:45:48;6.63;;;3.05;;
75316;SDS011;63913;51.492;10.368;2023-11-18T11:48:16;8.23;;;3.58;;
75316;SDS011;63913;51.492;10.368;2023-11-18T11:51:00;6.95;;;3.30;;
75316;SDS011;63913;51.492;10.368;2023-11-18T11:53:39;4.80;;;2.80;;
75316;SDS011;63913;51.492;10.368;2023-11-18T11:56:11;11.48;;;3.72;;
75316;SDS011;63913;51.492;10.368;2023-11-18T11:58:39;4.00;;;2.45;;
75316;SDS011;63913;51.492;10.368;2023-11-18T12:01:15;6.78;;;3.42;;
75316;SDS011;63913;51.492;10.368;2023-11-18T12:03:43;6.80;;;3.50;;
75316;SDS011;63913;51.492;10.368;2023-11-18T12:06:13;6.13;;;3.50;;
75316;SDS011;63913;51.492;10.368;2023-11-18T12:08:50;6.18;;;3.20;;
75316;SDS011;63913;51.492;10.368;2023-11-18T12:11:17;6.93;;;3.13;;
75316;SDS011;63913;51.492;10.368;2023-11-18T12:17:03;5.25;;;3.03;;
75316;SDS011;63913;51.492;10.368;2023-11-18T12:19:38;11.25;;;4.70;;
75316;SDS011;63913;51.492;10.368;2023-11-18T12:27:41;4.70;;;2.78;;
75316;SDS011;63913;51.492;10.368;2023-11-18T12:33:02;6.75;;;3.50;;
75316;SDS011;63913;51.492;10.368;2023-11-18T12:46:55;5.90;;;3.15;;
75316;SDS011;63913;51.492;10.368;2023-11-18T12:49:42;6.07;;;3.55;;
75316;SDS011;63913;51.492;10.368;2023-11-18T12:52:08;5.05;;;2.85;;
75316;SDS011;63913;51.492;10.368;2023-11-18T12:54:35;6.50;;;3.30;;
75316;SDS011;63913;51.492;10.368;2023-11-18T12:57:08;6.57;;;3.30;;
75316;SDS011;63913;51.492;10.368;2023-11-18T12:59:35;4.68;;;2.65;;
75316;SDS011;63913;51.492;10.368;2023-11-18T13:02:02;5.85;;;3.00;;
75316;SDS011;63913;51.492;10.368;2023-11-18T13:04:46;8.48;;;3.75;;
75316;SDS011;63913;51.492;10.368;2023-11-18T13:07:14;6.15;;;2.70;;
75316;SDS011;63913;51.492;10.368;2023-11-18T13:09:40;6.25;;;3.15;;
75316;SDS011;63913;51.492;10.368;2023-11-18T13:12:08;7.53;;;3.50;;
75316;SDS011;63913;51.492;10.368;2023-11-18T13:14:34;8.52;;;3.80;;
75316;SDS011;63913;51.492;10.368;2023-11-18T13:17:04;7.18;;;3.00;;
75316;SDS011;63913;51.492;10.368;2023-11-18T13:19:34;4.68;;;2.78;;
75316;SDS011;63913;51.492;10.368;2023-11-18T13:22:03;5.38;;;2.60;;
75316;SDS011;63913;51.492;10.368;2023-11-18T13:24:36;7.35;;;3.28;;
75316;SDS011;63913;51.492;10.368;2023-11-18T13:27:05;5.10;;;2.63;;
75316;SDS011;63913;51.492;10.368;2023-11-18T13:29:33;7.95;;;3.50;;
75316;SDS011;63913;51.492;10.368;2023-11-18T13:32:00;4.60;;;2.72;;
75316;SDS011;63913;51.492;10.368;2023-11-18T13:34:29;5.70;;;2.90;;
75316;SDS011;63913;51.492;10.368;2023-11-18T13:36:58;7.72;;;2.80;;
75316;SDS011;63913;51.492;10.368;2023-11-18T13:39:24;5.95;;;3.10;;
75316;SDS011;63913;51.492;10.368;2023-11-18T13:41:55;6.93;;;3.10;;
75316;SDS011;63913;51.492;10.368;2023-11-18T13:44:36;6.90;;;3.78;;
75316;SDS011;63913;51.492;10.368;2023-11-18T13:47:09;8.65;;;3.53;;
75316;SDS011;63913;51.492;10.368;2023-11-18T13:49:39;9.05;;;3.63;;
75316;SDS011;63913;51.492;10.368;2023-11-18T13:52:06;5.53;;;3.17;;
75316;SDS011;63913;51.492;10.368;2023-11-18T13:54:36;8.55;;;3.55;;
75316;SDS011;63913;51.492;10.368;2023-11-18T13:57:02;7.55;;;3.47;;
75316;SDS011;63913;51.492;10.368;2023-11-18T13:59:32;7.30;;;3.05;;
75316;SDS011;63913;51.492;10.368;2023-11-18T14:02:01;5.03;;;2.47;;
75316;SDS011;63913;51.492;10.368;2023-11-18T14:04:30;4.88;;;2.92;;
75316;SDS011;63913;51.492;10.368;2023-11-18T14:06:58;5.20;;;2.75;;
75316;SDS011;63913;51.492;10.368;2023-11-18T14:09:25;5.13;;;2.92;;
75316;SDS011;63913;51.492;10.368;2023-11-18T14:11:52;5.00;;;2.72;;
75316;SDS011;63913;51.492;10.368;2023-11-18T14:14:20;5.93;;;3.50;;
75316;SDS011;63913;51.492;10.368;2023-11-18T14:16:46;5.15;;;3.08;;
75316;SDS011;63913;51.492;10.368;2023-11-18T14:19:12;5.05;;;2.92;;
75316;SDS011;63913;51.492;10.368;2023-11-18T14:21:38;6.78;;;3.15;;
75316;SDS011;63913;51.492;10.368;2023-11-18T14:24:06;3.45;;;1.92;;
75316;SDS011;63913;51.492;10.368;2023-11-18T14:26:33;5.38;;;3.08;;
75316;SDS011;63913;51.492;10.368;2023-11-18T14:28:58;4.10;;;2.30;;
75316;SDS011;63913;51.492;10.368;2023-11-18T14:31:24;5.93;;;3.22;;
75316;SDS011;63913;51.492;10.368;2023-11-18T14:33:50;5.95;;;3.13;;
75316;SDS011;63913;51.492;10.368;2023-11-18T14:36:16;4.43;;;2.50;;
75316;SDS011;63913;51.492;10.368;2023-11-18T14:38:44;6.03;;;3.20;;
75316;SDS011;63913;51.492;10.368;2023-11-18T14:41:11;5.13;;;3.10;;
75316;SDS011;63913;51.492;10.368;2023-11-18T14:43:37;6.97;;;3.40;;
75316;SDS011;63913;51.492;10.368;2023-11-18T14:46:03;6.13;;;3.30;;
75316;SDS011;63913;51.492;10.368;2023-11-18T14:48:29;6.07;;;2.92;;
75316;SDS011;63913;51.492;10.368;2023-11-18T14:50:54;6.82;;;3.10;;
75316;SDS011;63913;51.492;10.368;2023-11-18T14:53:22;5.20;;;2.85;;
75316;SDS011;63913;51.492;10.368;2023-11-18T14:55:47;6.35;;;3.15;;
75316;SDS011;63913;51.492;10.368;2023-11-18T14:58:13;5.15;;;3.20;;
75316;SDS011;63913;51.492;10.368;2023-11-18T15:00:38;12.88;;;4.93;;
75316;SDS011;63913;51.492;10.368;2023-11-18T15:03:05;6.82;;;4.03;;
75316;SDS011;63913;51.492;10.368;2023-11-18T15:05:31;6.78;;;3.33;;
75316;SDS011;63913;51.492;10.368;2023-11-18T15:07:57;5.53;;;2.55;;